Bom Jardim de Minas, Brazil
Current Conditions -  °F | °C
As of 10:00 PM on Friday 24 Oct 2014 (Local Time) from SBBQ Reporting Station
Broken Clouds Broken Clouds  
Wind Chill: 70°   Ceiling: 10000
Heat Index: 70°   Visibility: 6mi
Dew Point: 54°   Wind: 5mph
Humidity: 56%   Direction: 70°ENE
Pressure: 30.12"   Gusts: NA
Location:  21.95°S, 44.19°W
Report Text: SBBQ 250000Z 07004KT 9999 FEW040 FEW045TCU BKN100 21/12 Q1020
Loading
Personal Weather Stations






























Interactive Weather Map
Tropical Storm Tracking
New forecast layout! Learn more

10-Day Weather Forecast

Advertisements
Track Severe Weather on mobile